Time;durP1;ratioP1;P1;durP2;ratioP2;P2;SDS_P1;SDS_P2;PMS_P1;PMS_P2;Temp;Humidity;BMP_temperature;BMP_pressure;BME280_temperature;BME280_humidity;BME280_pressure;Samples;Min_cycle;Max_cycle;Signal;HPM_P1;HPM_P2
2022/07/12 00:01:21;;;;;;;3.00;1.90;;;;;;;11.12;85.81;100628.90;84195;1338;22602;-71
2022/07/12 00:03:30;;;;;;;1.60;1.50;;;;;;;11.12;85.82;100628.90;84210;1338;25034;-71
2022/07/12 00:05:39;;;;;;;1.30;0.90;;;;;;;11.10;86.03;100628.59;84209;1338;22633;-72
2022/07/12 00:07:48;;;;;;;5.10;1.00;;;;;;;11.11;86.17;100628.23;84213;1339;24257;-72
2022/07/12 00:09:57;;;;;;;3.30;1.10;;;;;;;11.13;86.32;100629.73;84192;1334;23919;-72
2022/07/12 00:12:06;;;;;;;1.20;1.10;;;;;;;11.12;86.25;100632.21;84204;1338;22639;-71
2022/07/12 00:14:15;;;;;;;2.10;1.20;;;;;;;11.10;86.13;100630.52;84189;1338;22624;-71
2022/07/12 00:16:24;;;;;;;2.70;1.50;;;;;;;11.07;86.05;100631.85;84221;1338;23747;-71
2022/07/12 00:18:33;;;;;;;0.90;0.80;;;;;;;11.05;86.39;100633.86;84218;1339;22595;-70
2022/07/12 00:20:42;;;;;;;1.60;1.20;;;;;;;11.05;86.35;100633.66;84030;1339;22670;-71
2022/07/12 00:22:50;;;;;;;1.40;1.20;;;;;;;11.05;86.50;100632.11;84204;1338;22728;-71
2022/07/12 00:24:59;;;;;;;1.50;1.00;;;;;;;11.04;86.47;100635.30;84248;1338;22650;-71
2022/07/12 00:27:09;;;;;;;3.60;1.10;;;;;;;11.05;86.60;100635.25;84230;1338;22640;-71
2022/07/12 00:29:17;;;;;;;2.20;1.20;;;;;;;11.05;86.47;100635.61;84200;1336;22846;-71
2022/07/12 00:31:26;;;;;;;1.40;0.80;;;;;;;11.04;86.59;100635.81;84209;1338;23996;-71
2022/07/12 00:33:36;;;;;;;2.70;1.10;;;;;;;11.04;86.70;100630.93;84177;1338;25521;-71
2022/07/12 00:35:45;;;;;;;2.10;1.20;;;;;;;11.02;86.47;100629.25;84202;1338;22637;-71
2022/07/12 00:37:54;;;;;;;2.20;1.20;;;;;;;10.99;86.59;100629.35;84167;1338;22600;-71
2022/07/12 00:40:04;;;;;;;6.40;1.00;;;;;;;10.97;86.50;100622.11;84205;1338;22675;-71
2022/07/12 00:42:12;;;;;;;3.10;1.00;;;;;;;10.95;86.63;100623.41;84168;1338;25264;-71
2022/07/12 00:44:21;;;;;;;3.30;1.20;;;;;;;10.93;86.71;100620.14;84197;1338;22634;-72
2022/07/12 00:46:30;;;;;;;1.00;0.90;;;;;;;10.91;86.85;100621.79;84188;1338;22764;-71
2022/07/12 00:48:39;;;;;;;4.40;1.20;;;;;;;10.91;87.08;100619.53;84168;1338;22647;-70
2022/07/12 00:50:48;;;;;;;1.20;1.00;;;;;;;10.90;86.97;100624.47;84184;1338;22615;-71
2022/07/12 00:52:58;;;;;;;3.70;1.30;;;;;;;10.88;86.99;100621.73;84153;1338;26521;-71
2022/07/12 00:55:08;;;;;;;1.40;1.10;;;;;;;10.84;86.90;100623.06;84187;1338;24155;-71
2022/07/12 00:57:18;;;;;;;3.90;1.10;;;;;;;10.84;87.08;100626.23;84168;1338;24249;-71
2022/07/12 00:59:26;;;;;;;1.30;1.20;;;;;;;10.82;87.13;100626.45;84184;1339;25487;-71
2022/07/12 01:01:36;;;;;;;2.50;1.00;;;;;;;10.81;87.29;100629.46;84178;1339;26564;-71
2022/07/12 01:03:45;;;;;;;1.40;1.20;;;;;;;10.80;87.25;100633.85;84173;1338;22810;-71
2022/07/12 01:05:54;;;;;;;2.00;0.90;;;;;;;10.77;87.01;100627.66;84186;1338;22622;-72
2022/07/12 01:08:02;;;;;;;2.40;1.40;;;;;;;10.76;86.99;100629.81;84175;1338;22616;-72
2022/07/12 01:10:12;;;;;;;1.60;1.20;;;;;;;10.71;86.86;100628.94;84176;1339;22607;-71
2022/07/12 01:12:21;;;;;;;2.40;0.90;;;;;;;10.69;87.21;100627.61;84176;1338;23994;-71
2022/07/12 01:14:30;;;;;;;2.20;1.10;;;;;;;10.69;87.41;100627.80;84177;1338;25443;-71
2022/07/12 01:16:39;;;;;;;2.30;1.60;;;;;;;10.69;87.27;100628.30;84089;1340;25493;-71
2022/07/12 01:18:48;;;;;;;4.00;1.20;;;;;;;10.67;87.48;100630.46;84161;1341;22612;-71
2022/07/12 01:20:56;;;;;;;2.00;1.30;;;;;;;10.67;87.45;100630.83;83945;1336;353788;-71
2022/07/12 01:23:05;;;;;;;2.00;1.50;;;;;;;10.67;87.65;100632.72;84175;1335;24367;-70
2022/07/12 01:25:14;;;;;;;2.30;0.90;;;;;;;10.67;87.65;100629.60;84170;1339;25305;-72
2022/07/12 01:27:23;;;;;;;2.10;1.10;;;;;;;10.66;87.83;100626.64;84242;1336;23088;-72
2022/07/12 01:29:32;;;;;;;1.50;1.10;;;;;;;10.66;87.84;100623.38;84160;1338;22681;-71
2022/07/12 01:31:40;;;;;;;2.10;1.40;;;;;;;10.68;88.11;100620.33;84277;1337;25293;-71
2022/07/12 01:33:50;;;;;;;1.40;1.30;;;;;;;10.69;88.23;100619.92;84239;1336;24255;-71
2022/07/12 01:35:59;;;;;;;2.20;1.30;;;;;;;10.73;88.42;100616.65;84252;1337;22734;-72
2022/07/12 01:38:07;;;;;;;3.80;1.50;;;;;;;10.76;88.64;100616.04;84287;1329;22589;-71
2022/07/12 01:40:16;;;;;;;3.00;1.30;;;;;;;10.77;88.54;100615.12;84286;1337;24287;-72
2022/07/12 01:42:26;;;;;;;5.90;1.80;;;;;;;10.77;88.66;100616.68;84251;1338;24209;-71
2022/07/12 01:44:35;;;;;;;1.70;1.60;;;;;;;10.77;88.70;100613.00;84240;1337;22610;-71
2022/07/12 01:46:44;;;;;;;1.80;1.70;;;;;;;10.79;88.78;100614.02;84249;1337;24537;-71
2022/07/12 01:48:53;;;;;;;3.40;1.50;;;;;;;10.80;88.91;100608.75;84275;1337;22693;-71
2022/07/12 01:51:01;;;;;;;3.30;1.90;;;;;;;10.82;89.10;100609.36;84253;1338;22600;-71
2022/07/12 01:53:11;;;;;;;2.80;1.40;;;;;;;10.83;89.06;100605.98;84282;1338;24295;-71
2022/07/12 01:55:20;;;;;;;2.30;1.20;;;;;;;10.85;89.25;100606.27;84274;1338;22589;-71
2022/07/12 01:57:29;;;;;;;1.10;1.00;;;;;;;10.85;88.96;100602.44;84278;1338;22939;-72
2022/07/12 01:59:38;;;;;;;1.90;1.40;;;;;;;10.86;88.83;100603.65;84270;1338;22612;-71
2022/07/12 02:01:48;;;;;;;1.10;1.00;;;;;;;10.84;89.00;100601.95;84261;1335;22653;-71
2022/07/12 02:03:57;;;;;;;1.70;1.60;;;;;;;10.83;88.64;100597.44;84283;1339;22625;-71
2022/07/12 02:06:06;;;;;;;8.80;1.70;;;;;;;10.80;88.84;100593.71;84247;1338;22627;-71
2022/07/12 02:08:15;;;;;;;2.10;1.80;;;;;;;10.78;88.64;100592.55;84253;1338;25316;-71
2022/07/12 02:10:24;;;;;;;2.10;1.60;;;;;;;10.76;88.64;100588.98;84260;1329;24203;-71
2022/07/12 02:12:33;;;;;;;1.30;1.20;;;;;;;10.75;88.92;100589.19;84255;1338;22630;-70
2022/07/12 02:14:46;;;;;;;2.80;1.40;;;;;;;10.78;89.21;100590.99;84255;1333;22679;-70
2022/07/12 02:16:54;;;;;;;4.70;2.50;;;;;;;10.84;89.81;100595.33;84284;1338;22612;-72
2022/07/12 02:19:03;;;;;;;2.10;1.50;;;;;;;10.89;89.79;100591.85;84275;1336;23019;-71
2022/07/12 02:21:12;;;;;;;5.10;2.80;;;;;;;10.93;89.84;100591.70;84240;1337;22598;-71
2022/07/12 02:23:21;;;;;;;3.20;1.70;;;;;;;10.96;89.86;100590.19;84054;1339;22785;-70
2022/07/12 02:25:31;;;;;;;2.30;1.40;;;;;;;10.99;89.95;100589.58;84286;1338;22610;-71
2022/07/12 02:27:41;;;;;;;3.10;1.60;;;;;;;11.02;90.08;100586.98;84261;1334;22620;-72
2022/07/12 02:29:48;;;;;;;;;;;;;;;11.04;89.89;100590.27;84254;1338;22594;-71
2022/07/12 02:31:57;;;;;;;2.10;1.90;;;;;;;11.04;89.98;100589.55;84276;1338;22617;-71
2022/07/12 02:34:06;;;;;;;2.60;1.50;;;;;;;11.07;90.05;100588.73;84271;1337;22609;-71
2022/07/12 02:36:19;;;;;;;4.60;2.90;;;;;;;11.10;90.18;100588.95;84034;1339;22613;-71
2022/07/12 02:38:27;;;;;;;1.80;1.50;;;;;;;11.14;90.25;100584.28;84250;1337;22625;-70
2022/07/12 02:40:55;;;;;;;3.20;1.80;;;;;;;11.20;90.38;100582.16;84248;1332;22600;-71
2022/07/12 02:43:04;;;;;;;5.40;1.70;;;;;;;11.26;90.61;100579.45;84274;1337;23061;-71
2022/07/12 02:45:13;;;;;;;2.00;1.80;;;;;;;11.32;90.47;100575.56;84266;1337;22674;-71
2022/07/12 02:47:22;;;;;;;1.80;1.50;;;;;;;11.37;90.60;100574.52;84269;1337;22625;-71
2022/07/12 02:49:30;;;;;;;2.20;1.70;;;;;;;11.41;90.84;100569.30;84242;1336;22609;-71
2022/07/12 02:51:39;;;;;;;1.80;1.50;;;;;;;11.46;90.62;100571.21;84276;1338;22733;-70
2022/07/12 02:53:48;;;;;;;3.00;1.60;;;;;;;11.52;91.03;100570.98;84258;1338;22599;-71
2022/07/12 02:55:57;;;;;;;2.20;1.20;;;;;;;11.58;90.94;100565.52;84276;1337;22966;-70
2022/07/12 02:58:06;;;;;;;4.30;2.00;;;;;;;11.61;91.00;100569.90;84259;1337;24271;-71
2022/07/12 03:00:17;;;;;;;3.00;1.80;;;;;;;11.68;91.16;100569.51;84282;1337;24437;-71
2022/07/12 03:02:26;;;;;;;3.50;1.50;;;;;;;11.73;91.16;100569.98;84302;1334;25505;-71
2022/07/12 03:04:35;;;;;;;4.60;1.80;;;;;;;11.78;91.10;100571.90;84268;1337;22622;-72
2022/07/12 03:06:44;;;;;;;3.20;1.30;;;;;;;11.81;91.17;100571.75;84283;1337;22638;-71
2022/07/12 03:08:53;;;;;;;2.20;1.70;;;;;;;11.88;91.35;100570.29;84282;1337;22591;-71
2022/07/12 03:11:01;;;;;;;6.80;1.60;;;;;;;11.94;91.15;100573.55;84283;1332;22617;-72
2022/07/12 03:13:10;;;;;;;3.90;1.60;;;;;;;12.01;91.34;100577.13;84263;1338;25907;-70
2022/07/12 03:15:19;;;;;;;2.10;1.70;;;;;;;12.07;91.29;100576.00;84259;1338;24278;-72
2022/07/12 03:17:28;;;;;;;4.00;2.00;;;;;;;12.12;91.11;100570.02;84273;1336;22620;-72
2022/07/12 03:19:37;;;;;;;2.90;1.40;;;;;;;12.16;91.19;100573.52;84246;1337;23998;-71
2022/07/12 03:21:46;;;;;;;2.90;1.80;;;;;;;12.21;91.03;100569.66;84272;1338;22731;-70
2022/07/12 03:23:55;;;;;;;1.70;1.40;;;;;;;12.26;91.22;100571.17;84274;1338;22701;-71
2022/07/12 03:26:04;;;;;;;2.40;1.90;;;;;;;12.29;91.07;100578.92;84235;1338;25464;-72
2022/07/12 03:28:13;;;;;;;3.20;1.50;;;;;;;12.34;90.99;100583.08;84258;1338;23922;-72
2022/07/12 03:30:22;;;;;;;2.10;1.40;;;;;;;12.40;91.08;100580.02;84251;1338;22619;-71
2022/07/12 03:32:31;;;;;;;2.60;1.70;;;;;;;12.44;90.77;100579.52;84043;1340;26579;-70
2022/07/12 03:34:40;;;;;;;3.00;1.50;;;;;;;12.47;90.81;100576.08;84260;1337;24004;-71
2022/07/12 03:36:49;;;;;;;1.80;1.40;;;;;;;12.52;90.97;100576.55;84274;1338;22637;-71
2022/07/12 03:38:58;;;;;;;3.60;1.70;;;;;;;12.57;90.87;100576.35;84256;1336;24192;-71
2022/07/12 03:41:09;;;;;;;2.00;1.60;;;;;;;12.61;91.04;100570.58;84291;1337;24409;-71
2022/07/12 03:43:18;;;;;;;6.20;1.60;;;;;;;12.64;90.87;100570.79;84273;1336;23987;-71
2022/07/12 03:45:27;;;;;;;4.70;1.60;;;;;;;12.67;90.72;100569.43;84280;1337;22603;-72
2022/07/12 03:47:37;;;;;;;3.60;1.60;;;;;;;12.70;90.85;100574.20;84270;1336;22608;-71
2022/07/12 03:49:44;;;;;;;;;;;;;;;12.75;90.75;100572.42;84071;1336;22870;-73
2022/07/12 03:51:53;;;;;;;4.50;1.90;;;;;;;12.77;90.88;100573.02;84260;1336;22881;-72
2022/07/12 03:54:02;;;;;;;4.00;1.60;;;;;;;12.81;90.60;100564.80;84265;1338;25056;-71
2022/07/12 03:57:13;;;;;;;4.60;1.60;;;;;;;12.84;90.62;100563.58;84256;1336;22595;-70
2022/07/12 03:58:42;;;;;;;4.70;2.10;;;;;;;12.91;90.62;100564.52;84272;1338;25421;-71
2022/07/12 04:00:50;;;;;;;3.30;2.00;;;;;;;12.95;90.66;100564.70;84266;1338;22593;-72
2022/07/12 04:02:59;;;;;;;6.90;1.60;;;;;;;13.00;90.54;100567.10;84268;1338;22746;-71
2022/07/12 04:05:12;;;;;;;3.70;1.90;;;;;;;13.05;90.55;100560.77;84267;1337;22585;-70
2022/07/12 04:07:21;;;;;;;2.70;1.70;;;;;;;13.08;90.56;100560.77;84251;1329;24280;-71
2022/07/12 04:09:30;;;;;;;5.90;1.70;;;;;;;13.11;90.46;100559.05;84262;1336;22565;-70
2022/07/12 04:11:39;;;;;;;1.80;1.50;;;;;;;13.15;90.41;100554.67;84258;1337;22677;-71
2022/07/12 04:13:47;;;;;;;5.90;1.80;;;;;;;13.19;90.35;100551.16;84261;1338;22600;-71
2022/07/12 04:15:56;;;;;;;3.30;1.90;;;;;;;13.23;90.15;100547.88;84274;1337;24261;-71
2022/07/12 04:18:05;;;;;;;1.30;1.20;;;;;;;13.25;90.19;100548.63;84276;1333;22779;-71
2022/07/12 04:20:15;;;;;;;3.50;1.70;;;;;;;13.29;90.22;100547.94;84265;1338;25463;-71
2022/07/12 04:22:22;;;;;;;;;;;;;;;13.31;90.06;100543.63;84259;1338;22911;-72
2022/07/12 04:24:32;;;;;;;5.90;2.00;;;;;;;13.34;90.04;100545.42;84280;1338;22735;-72
2022/07/12 04:26:41;;;;;;;2.10;1.90;;;;;;;13.40;90.32;100542.16;84259;1338;22676;-71
2022/07/12 04:28:50;;;;;;;6.60;1.70;;;;;;;13.45;90.07;100539.83;84252;1338;22729;-72
2022/07/12 04:30:59;;;;;;;1.90;1.80;;;;;;;13.50;90.05;100539.77;84286;1337;23061;-72
2022/07/12 04:33:07;;;;;;;6.50;2.60;;;;;;;13.57;89.97;100536.29;84279;1336;23146;-71
2022/07/12 04:35:16;;;;;;;3.70;1.90;;;;;;;13.63;89.92;100537.93;84294;1338;24979;-71
2022/07/12 04:37:25;;;;;;;5.20;1.70;;;;;;;13.67;89.80;100531.93;84133;1338;22614;-72
2022/07/12 04:39:34;;;;;;;6.90;1.90;;;;;;;13.75;89.75;100524.05;84286;1338;24298;-71
2022/07/12 04:41:43;;;;;;;2.40;1.80;;;;;;;13.78;89.62;100523.69;84282;1337;22630;-71
2022/07/12 04:43:52;;;;;;;4.80;1.90;;;;;;;13.82;89.51;100527.35;84271;1338;22617;-71
2022/07/12 04:46:09;;;;;;;3.80;1.80;;;;;;;13.84;89.31;100528.98;84270;1330;22730;-71
2022/07/12 04:48:18;;;;;;;3.70;1.90;;;;;;;13.87;89.16;100526.59;84277;1338;22783;-71
2022/07/12 04:50:27;;;;;;;5.30;1.90;;;;;;;13.91;89.31;100524.45;84269;1337;24741;-72
2022/07/12 04:52:35;;;;;;;5.80;1.80;;;;;;;13.97;89.29;100521.73;84255;1337;22627;-72
2022/07/12 04:54:45;;;;;;;3.90;1.80;;;;;;;14.02;89.22;100523.41;84261;1338;22713;-72
2022/07/12 04:56:54;;;;;;;10.50;3.30;;;;;;;14.08;89.19;100524.84;84262;1338;22595;-71
2022/07/12 04:59:02;;;;;;;6.50;2.40;;;;;;;14.13;89.20;100525.45;84265;1336;22599;-72
2022/07/12 05:01:11;;;;;;;2.90;1.50;;;;;;;14.21;89.18;100522.42;84221;1338;22631;-71
2022/07/12 05:03:20;;;;;;;1.80;1.50;;;;;;;14.30;89.23;100517.42;84249;1337;23935;-72
2022/07/12 05:05:28;;;;;;;5.60;1.70;;;;;;;14.36;89.05;100508.83;84288;1333;22618;-71
2022/07/12 05:07:37;;;;;;;4.60;1.80;;;;;;;14.41;88.73;100505.08;84250;1338;22621;-71
2022/07/12 05:09:47;;;;;;;6.80;2.00;;;;;;;14.45;88.48;100502.10;84247;1338;22632;-71
2022/07/12 05:11:55;;;;;;;4.40;2.00;;;;;;;14.50;88.41;100504.70;84270;1336;22603;-72
2022/07/12 05:14:04;;;;;;;4.80;1.40;;;;;;;14.51;88.24;100501.77;84263;1336;25294;-72
2022/07/12 05:16:14;;;;;;;3.60;1.50;;;;;;;14.58;88.30;100502.86;84252;1336;23268;-71
2022/07/12 05:18:23;;;;;;;9.30;2.30;;;;;;;14.62;88.06;100502.79;84249;1337;22848;-71
2022/07/12 05:20:31;;;;;;;3.50;1.90;;;;;;;14.65;88.02;100508.95;84246;1338;23970;-72
2022/07/12 05:22:41;;;;;;;8.80;2.50;;;;;;;14.70;88.08;100514.46;84263;1338;22597;-72
2022/07/12 05:24:50;;;;;;;3.00;1.90;;;;;;;14.78;88.00;100513.37;84241;1338;23999;-71
2022/07/12 05:26:59;;;;;;;6.20;1.70;;;;;;;14.86;88.04;100510.48;84242;1338;22676;-71
2022/07/12 05:29:08;;;;;;;6.20;1.80;;;;;;;14.96;88.08;100509.93;84252;1338;22589;-71
2022/07/12 05:31:16;;;;;;;3.60;2.40;;;;;;;15.17;88.82;100509.30;84225;1337;25453;-71
2022/07/12 05:33:25;;;;;;;3.10;1.40;;;;;;;15.38;88.75;100508.14;84246;1338;22950;-72
2022/07/12 05:35:35;;;;;;;3.80;1.70;;;;;;;15.61;88.55;100503.88;84234;1337;22669;-72
2022/07/12 05:37:43;;;;;;;2.90;1.50;;;;;;;15.89;88.93;100502.80;84250;1337;25443;-71
2022/07/12 05:39:53;;;;;;;2.30;1.50;;;;;;;16.10;87.90;100504.42;84239;1338;22634;-71
2022/07/12 05:42:02;;;;;;;5.70;1.40;;;;;;;16.24;86.80;100499.17;84254;1337;22596;-72
2022/07/12 05:44:10;;;;;;;5.10;1.60;;;;;;;16.40;86.21;100501.20;84272;1337;22623;-72
2022/07/12 05:46:20;;;;;;;3.80;1.30;;;;;;;16.50;85.49;100498.64;84258;1338;22823;-71
2022/07/12 05:48:29;;;;;;;1.70;1.20;;;;;;;16.54;84.85;100492.30;84265;1336;22924;-72
2022/07/12 05:50:39;;;;;;;4.90;1.30;;;;;;;16.57;84.43;100496.12;84293;1337;23970;-72
2022/07/12 05:55:14;;;;;;;3.40;1.20;;;;;;;16.62;83.22;100492.50;84247;1336;22593;-72
2022/07/12 05:57:23;;;;;;;4.90;2.00;;;;;;;16.64;83.21;100488.33;84272;1336;22625;-72
2022/07/12 05:59:32;;;;;;;3.40;1.60;;;;;;;16.72;83.41;100486.26;84264;1336;23941;-72
2022/07/12 06:01:41;;;;;;;2.60;1.30;;;;;;;16.82;83.25;100485.47;84265;1337;22589;-71
2022/07/12 06:03:50;;;;;;;2.20;1.10;;;;;;;16.93;83.03;100488.32;84261;1337;24227;-71
2022/07/12 06:05:59;;;;;;;1.50;1.10;;;;;;;17.01;82.67;100492.72;84317;1337;22597;-71
2022/07/12 06:08:09;;;;;;;3.10;1.30;;;;;;;17.06;82.13;100497.05;84284;1337;25501;-72
2022/07/12 06:10:18;;;;;;;2.90;1.10;;;;;;;17.10;81.70;100499.45;84286;1338;22731;-72
2022/07/12 06:12:26;;;;;;;3.50;1.20;;;;;;;17.12;81.59;100501.76;84280;1337;25301;-71
2022/07/12 06:14:36;;;;;;;2.60;1.10;;;;;;;17.15;81.30;100502.10;84278;1337;23013;-71
2022/07/12 06:16:43;;;;;;;;;;;;;;;17.14;80.97;100504.43;84105;1339;22598;-71
2022/07/12 06:18:52;;;;;;;3.20;0.90;;;;;;;17.11;80.72;100503.04;84186;1339;22609;-71
2022/07/12 06:21:01;;;;;;;3.60;1.30;;;;;;;17.09;80.56;100504.02;84311;1338;22778;-72
2022/07/12 06:23:10;;;;;;;4.30;1.80;;;;;;;17.11;80.59;100508.84;84285;1338;22635;-71
2022/07/12 06:25:24;;;;;;;2.40;1.40;;;;;;;17.10;80.07;100508.20;84316;1337;22602;-71
2022/07/12 06:27:33;;;;;;;3.00;1.10;;;;;;;17.10;80.30;100507.70;84266;1338;22856;-70
2022/07/12 06:29:47;;;;;;;6.40;1.10;;;;;;;17.19;80.80;100503.95;84274;1337;22688;-71
2022/07/12 06:31:56;;;;;;;2.10;1.10;;;;;;;17.38;81.19;100497.95;84293;1338;25323;-70
2022/07/12 06:34:05;;;;;;;1.70;1.10;;;;;;;17.76;82.20;100491.13;84279;1336;23965;-69
2022/07/12 06:36:15;;;;;;;3.20;1.40;;;;;;;18.19;81.87;100484.17;84295;1337;23893;-70
2022/07/12 06:38:24;;;;;;;1.80;1.20;;;;;;;18.55;80.85;100482.37;84304;1337;23049;-69
2022/07/12 06:40:33;;;;;;;2.60;0.80;;;;;;;18.77;79.94;100482.45;84278;1334;22593;-71
2022/07/12 06:42:42;;;;;;;4.90;2.30;;;;;;;18.91;78.96;100481.19;84275;1336;22708;-71
2022/07/12 06:44:50;;;;;;;59.60;45.00;;;;;;;18.98;77.67;100481.73;84302;1334;22788;-70
2022/07/12 06:47:00;;;;;;;7.20;6.00;;;;;;;19.04;77.26;100483.20;84288;1338;22751;-71
2022/07/12 06:49:09;;;;;;;2.60;2.10;;;;;;;19.24;77.58;100482.89;84316;1337;26551;-71
2022/07/12 06:51:20;;;;;;;2.50;1.20;;;;;;;19.61;77.35;100486.33;84301;1337;22641;-71
2022/07/12 06:53:29;;;;;;;5.10;1.10;;;;;;;20.04;77.10;100480.45;84177;1338;22627;-71
2022/07/12 06:55:38;;;;;;;7.20;1.40;;;;;;;20.57;75.85;100478.59;84301;1338;22846;-71
2022/07/12 06:57:47;;;;;;;3.80;1.10;;;;;;;20.84;72.68;100476.77;84215;1338;22622;-72
2022/07/12 06:59:56;;;;;;;3.40;1.00;;;;;;;20.95;70.84;100477.73;84297;1334;23876;-71
2022/07/12 07:02:05;;;;;;;3.90;1.00;;;;;;;21.03;69.87;100473.53;84286;1337;22630;-71
2022/07/12 07:04:14;;;;;;;4.90;1.70;;;;;;;21.09;69.27;100473.54;84223;1334;22606;-72
2022/07/12 07:06:23;;;;;;;2.90;1.40;;;;;;;21.12;69.12;100473.13;84287;1336;22642;-72
2022/07/12 07:08:32;;;;;;;4.40;0.70;;;;;;;21.08;68.55;100475.70;84301;1337;22733;-72
2022/07/12 07:10:41;;;;;;;2.90;1.20;;;;;;;21.05;67.69;100476.35;84285;1337;22584;-71
2022/07/12 07:12:50;;;;;;;1.20;1.10;;;;;;;20.97;67.46;100474.55;84303;1333;22612;-72
2022/07/12 07:14:58;;;;;;;2.40;0.70;;;;;;;21.00;67.81;100474.42;84235;1336;22936;-71
2022/07/12 07:17:08;;;;;;;2.60;0.70;;;;;;;21.14;67.74;100476.73;84093;1340;24318;-70
2022/07/12 07:19:19;;;;;;;4.10;1.00;;;;;;;21.18;67.28;100478.13;84295;1337;25532;-71
2022/07/12 07:21:28;;;;;;;3.40;1.00;;;;;;;21.28;66.87;100483.67;84215;1338;22664;-70
2022/07/12 07:23:36;;;;;;;3.60;1.00;;;;;;;21.36;64.90;100482.52;84288;1337;23076;-70
2022/07/12 07:25:45;;;;;;;0.80;0.70;;;;;;;21.24;64.21;100482.45;84180;1338;22625;-71
2022/07/12 07:27:54;;;;;;;1.30;0.60;;;;;;;21.12;64.68;100483.72;84293;1338;24432;-71
2022/07/12 07:32:29;;;;;;;0.90;0.80;;;;;;;21.00;64.12;100484.74;84282;1338;22628;-71
2022/07/12 07:34:38;;;;;;;2.40;0.60;;;;;;;21.54;66.35;100482.70;84274;1337;22635;-71
2022/07/12 07:36:47;;;;;;;1.50;0.70;;;;;;;22.17;65.32;100483.30;84204;1338;23050;-71
2022/07/12 07:38:56;;;;;;;4.10;0.70;;;;;;;22.52;62.79;100483.35;84285;1333;22629;-72
2022/07/12 07:41:05;;;;;;;2.50;0.70;;;;;;;22.76;62.05;100484.26;84282;1337;22598;-70
2022/07/12 07:43:14;;;;;;;1.10;0.60;;;;;;;22.93;61.12;100482.08;84213;1338;24323;-71
2022/07/12 07:45:22;;;;;;;0.80;0.70;;;;;;;23.04;60.11;100481.98;84315;1337;24556;-71
2022/07/12 07:47:32;;;;;;;3.50;0.90;;;;;;;23.24;59.61;100480.98;84298;1336;22679;-71
2022/07/12 07:49:43;;;;;;;1.20;0.50;;;;;;;23.28;58.47;100483.48;84282;1330;22599;-71
2022/07/12 07:51:52;;;;;;;0.70;0.60;;;;;;;23.24;57.55;100484.51;84289;1329;22724;-70
2022/07/12 07:54:02;;;;;;;1.00;0.50;;;;;;;23.26;57.52;100479.36;84307;1340;25391;-70
2022/07/12 07:56:12;;;;;;;1.20;0.70;;;;;;;23.49;56.95;100480.08;84302;1334;22599;-70
2022/07/12 07:58:23;;;;;;;6.50;0.90;;;;;;;23.63;56.30;100481.76;84270;1336;23901;-70
2022/07/12 08:00:32;;;;;;;2.10;0.70;;;;;;;23.60;56.30;100484.06;84317;1337;22658;-70
2022/07/12 08:02:41;;;;;;;2.20;0.80;;;;;;;23.60;56.52;100476.61;84281;1334;22592;-71
2022/07/12 08:04:50;;;;;;;1.70;0.70;;;;;;;23.84;57.22;100474.69;84299;1336;22573;-71
2022/07/12 08:06:59;;;;;;;1.40;0.80;;;;;;;24.03;56.01;100469.45;84269;1333;22715;-71
2022/07/12 08:09:10;;;;;;;1.00;0.70;;;;;;;24.11;55.56;100463.37;84294;1336;24246;-71
2022/07/12 08:11:19;;;;;;;1.50;0.70;;;;;;;24.09;54.90;100462.35;84287;1334;22696;-69
2022/07/12 08:13:28;;;;;;;4.20;0.80;;;;;;;23.89;54.65;100462.27;84247;1336;24117;-70
2022/07/12 08:15:37;;;;;;;2.30;0.90;;;;;;;23.57;54.28;100465.67;84281;1333;22739;-71
2022/07/12 08:17:45;;;;;;;0.70;0.70;;;;;;;23.22;54.39;100468.15;84293;1332;22723;-71
2022/07/12 08:19:54;;;;;;;4.20;0.90;;;;;;;23.00;54.47;100466.56;84265;1338;22849;-71
2022/07/12 08:22:06;;;;;;;1.90;0.90;;;;;;;22.89;53.84;100474.83;84294;1334;22825;-70
2022/07/12 08:24:15;;;;;;;1.00;0.60;;;;;;;22.78;53.79;100473.96;84260;1339;22611;-72
2022/07/12 08:26:23;;;;;;;2.40;1.30;;;;;;;22.90;54.70;100473.77;84120;1336;22851;-71
2022/07/12 08:28:33;;;;;;;1.10;0.90;;;;;;;23.00;53.86;100478.65;84265;1337;22854;-71
2022/07/12 08:30:42;;;;;;;1.70;0.70;;;;;;;23.01;53.70;100480.71;84244;1336;22589;-71
2022/07/12 08:32:50;;;;;;;1.90;0.90;;;;;;;23.06;53.27;100474.34;84269;1337;25538;-70
2022/07/12 08:35:00;;;;;;;1.40;0.80;;;;;;;23.00;53.17;100477.02;84266;1337;25259;-71
2022/07/12 08:37:09;;;;;;;3.40;0.70;;;;;;;22.97;52.30;100478.42;84276;1337;22593;-73
2022/07/12 08:39:19;;;;;;;2.10;0.90;;;;;;;22.98;53.86;100473.67;84260;1338;22734;-71
2022/07/12 08:41:29;;;;;;;1.90;0.60;;;;;;;23.17;54.27;100472.11;84243;1336;22667;-69
2022/07/12 08:43:39;;;;;;;2.00;0.70;;;;;;;23.25;53.54;100474.45;84271;1338;25496;-70
2022/07/12 08:45:48;;;;;;;1.30;0.80;;;;;;;23.22;53.28;100472.20;84296;1335;22608;-71
2022/07/12 08:47:59;;;;;;;1.50;0.60;;;;;;;23.09;53.33;100472.64;84065;1340;22594;-71
2022/07/12 08:50:19;;;;;;;5.50;1.40;;;;;;;23.11;54.20;100473.16;84246;1338;22601;-70
2022/07/12 08:52:31;;;;;;;0.90;0.60;;;;;;;23.32;54.01;100471.15;84296;1337;22604;-71
2022/07/12 08:54:45;;;;;;;1.80;1.00;;;;;;;23.55;54.33;100467.84;84264;1338;22629;-69
2022/07/12 08:56:54;;;;;;;1.40;0.80;;;;;;;23.82;53.62;100471.40;84268;1338;22653;-70
2022/07/12 08:59:17;;;;;;;0.80;0.60;;;;;;;24.01;53.03;100468.84;84277;1337;24295;-70
2022/07/12 09:01:44;;;;;;;1.20;0.70;;;;;;;24.07;51.63;100471.78;84273;1338;22700;-70
2022/07/12 09:03:57;;;;;;;1.90;0.80;;;;;;;24.05;50.37;100462.85;84278;1338;25481;-71
2022/07/12 09:06:08;;;;;;;1.10;0.70;;;;;;;23.98;50.72;100458.80;84279;1337;22626;-70
2022/07/12 09:08:17;;;;;;;0.80;0.80;;;;;;;24.02;51.32;100457.63;84289;1340;22603;-70
2022/07/12 09:10:26;;;;;;;1.00;0.60;;;;;;;23.99;50.70;100456.33;84262;1336;22604;-70
2022/07/12 09:12:35;;;;;;;1.10;0.60;;;;;;;23.98;50.54;100454.63;84280;1336;22576;-70
2022/07/12 09:14:44;;;;;;;2.00;0.70;;;;;;;24.01;50.80;100451.51;84258;1338;25451;-71
2022/07/12 09:17:09;;;;;;;4.10;0.70;;;;;;;24.15;50.63;100449.81;84267;1337;25458;-72
2022/07/12 09:19:19;;;;;;;0.60;0.60;;;;;;;24.22;50.68;100444.01;84254;1337;22624;-71
2022/07/12 09:21:30;;;;;;;3.70;0.60;;;;;;;24.20;50.33;100441.33;83928;1336;460143;-71
2022/07/12 09:23:53;;;;;;;0.90;0.70;;;;;;;24.21;50.46;100442.30;84280;1337;22624;-69
2022/07/12 09:26:02;;;;;;;1.90;0.70;;;;;;;24.15;50.13;100444.15;84271;1337;24320;-70
2022/07/12 09:28:10;;;;;;;;;;;;;;;24.06;50.01;100449.96;84289;1337;25433;-69
2022/07/12 09:30:21;;;;;;;2.60;0.70;;;;;;;23.94;50.72;100451.94;84254;1335;22856;-69
2022/07/12 09:37:25;;;;;;;1.60;0.70;;;;;;;23.79;50.22;100449.24;84267;1337;22585;-71
2022/07/12 09:39:34;;;;;;;5.40;0.80;;;;;;;23.71;50.63;100451.28;84276;1336;22644;-72
2022/07/12 09:41:42;;;;;;;4.50;0.60;;;;;;;23.63;50.38;100449.61;84224;1338;25443;-70
2022/07/12 09:43:52;;;;;;;2.20;1.00;;;;;;;23.60;50.71;100446.33;84251;1336;22614;-70
2022/07/12 09:46:04;;;;;;;1.10;0.80;;;;;;;23.62;51.06;100446.89;84286;1334;22756;-71
2022/07/12 09:48:12;;;;;;;3.60;1.20;;;;;;;23.63;50.96;100437.39;84276;1337;22606;-69
2022/07/12 09:50:21;;;;;;;1.60;1.10;;;;;;;23.61;51.10;100430.72;84271;1332;22566;-69
2022/07/12 09:52:30;;;;;;;2.00;0.90;;;;;;;23.64;51.67;100429.77;84180;1338;22703;-69
2022/07/12 09:54:41;;;;;;;3.00;0.80;;;;;;;23.68;51.26;100438.45;84295;1337;22590;-69
2022/07/12 09:56:52;;;;;;;1.30;0.70;;;;;;;23.71;51.36;100442.00;84295;1336;22605;-70
2022/07/12 09:59:01;;;;;;;2.40;0.90;;;;;;;23.73;51.14;100443.98;84282;1337;22608;-71
2022/07/12 10:01:09;;;;;;;1.30;0.60;;;;;;;23.68;50.74;100440.09;84281;1337;23915;-71
2022/07/12 10:03:18;;;;;;;1.80;0.70;;;;;;;23.66;50.55;100439.81;84271;1338;25304;-70
2022/07/12 10:05:28;;;;;;;2.10;0.70;;;;;;;23.65;50.51;100433.49;84281;1337;25457;-71
2022/07/12 10:07:37;;;;;;;2.00;0.90;;;;;;;23.71;51.02;100432.98;84272;1337;23993;-71
2022/07/12 10:09:47;;;;;;;0.90;0.70;;;;;;;23.78;51.20;100428.16;84273;1336;22609;-71
2022/07/12 10:11:59;;;;;;;4.20;0.80;;;;;;;23.81;50.71;100428.13;84293;1338;25249;-71
2022/07/12 10:14:12;;;;;;;6.10;0.80;;;;;;;23.79;50.47;100422.20;84101;1340;22616;-72